createdAt,value
2017-09-25T00:11:46.530Z,88.97
2017-09-25T00:14:12.952Z,87.77
2017-09-25T00:16:39.510Z,87.15
2017-09-25T00:19:06.967Z,86.44
2017-09-25T00:21:33.513Z,85.94
2017-09-25T00:24:00.169Z,85.82
2017-09-25T00:26:28.312Z,86.14
2017-09-25T00:28:55.024Z,86.21
2017-09-25T00:31:21.615Z,85.98
2017-09-25T00:33:48.420Z,85.68
2017-09-25T00:36:15.044Z,86.24
2017-09-25T00:38:42.714Z,86.22
2017-09-25T00:41:09.193Z,85.91
2017-09-25T00:43:36.656Z,85.75
2017-09-25T00:46:04.196Z,85.82
2017-09-25T00:48:31.648Z,86.07
2017-09-25T00:50:58.080Z,86.33
2017-09-25T00:53:43.313Z,86.07
2017-09-25T00:56:09.956Z,86.20
2017-09-25T01:01:50.223Z,86.59
2017-09-25T01:07:30.379Z,86.11
2017-09-25T01:12:52.300Z,86.24
2017-09-25T01:15:27.951Z,86.27
2017-09-25T01:17:55.874Z,86.28
2017-09-25T01:20:22.519Z,86.28
2017-09-25T01:22:49.275Z,86.50
2017-09-25T01:25:15.880Z,86.41
2017-09-25T01:27:43.368Z,85.96
2017-09-25T01:30:11.041Z,85.55
2017-09-25T01:32:37.616Z,85.36
2017-09-25T01:35:05.640Z,84.80
2017-09-25T01:37:32.168Z,84.84
2017-09-25T01:39:58.888Z,85.33
2017-09-25T01:42:27.478Z,86.17
2017-09-25T01:47:52.510Z,85.30
2017-09-25T01:53:14.064Z,84.57
2017-09-25T01:55:40.664Z,84.67
2017-09-25T01:58:07.425Z,84.56
2017-09-25T02:00:34.032Z,84.70
2017-09-25T02:03:00.806Z,84.95
2017-09-25T02:05:42.956Z,85.57
2017-09-25T02:08:09.566Z,86.18
2017-09-25T02:10:36.056Z,86.17
2017-09-25T02:13:02.676Z,84.76
2017-09-25T02:15:29.266Z,84.26
2017-09-25T02:17:59.632Z,84.52
2017-09-25T02:20:26.686Z,84.37
2017-09-25T02:22:56.207Z,84.46
2017-09-25T02:25:23.107Z,84.91
2017-09-25T02:27:49.793Z,84.45
2017-09-25T02:30:16.373Z,84.36
2017-09-25T02:32:43.926Z,84.60
2017-09-25T02:35:10.662Z,84.63
2017-09-25T02:37:39.317Z,84.81
2017-09-25T02:40:05.913Z,84.83
2017-09-25T02:42:32.511Z,84.92
2017-09-25T02:45:02.839Z,84.94
2017-09-25T03:01:53.072Z,87.17
2017-09-25T03:04:19.544Z,87.11
2017-09-25T03:06:46.282Z,86.87
2017-09-25T03:09:12.988Z,86.26
2017-09-25T03:11:40.851Z,85.75
2017-09-25T03:14:07.465Z,85.28
2017-09-25T03:19:25.586Z,85.11
2017-09-25T03:21:56.144Z,85.06
2017-09-25T03:24:22.885Z,85.00
2017-09-25T03:26:50.297Z,85.22
2017-09-25T03:29:19.479Z,85.22
2017-09-25T03:31:46.120Z,85.01
2017-09-25T03:34:12.744Z,85.06
2017-09-25T03:36:41.481Z,85.17
2017-09-25T03:39:08.224Z,84.84
2017-09-25T03:41:35.816Z,85.30
2017-09-25T03:44:03.465Z,85.85
2017-09-25T03:46:31.091Z,84.95
2017-09-25T03:48:57.735Z,84.63
2017-09-25T03:51:25.419Z,84.13
2017-09-25T03:53:52.116Z,84.33
2017-09-25T03:56:18.604Z,84.38
2017-09-25T03:58:46.082Z,84.58
2017-09-25T04:04:06.223Z,84.22
2017-09-25T04:06:32.736Z,84.55
2017-09-25T04:09:01.340Z,84.60
2017-09-25T04:11:30.941Z,84.86
2017-09-25T04:14:00.424Z,85.09
2017-09-25T04:27:59.664Z,86.38
2017-09-25T04:30:26.108Z,86.28
2017-09-25T04:35:51.024Z,87.17
2017-09-25T04:53:58.544Z,88.00
2017-09-25T04:56:26.772Z,87.33
2017-09-25T04:58:53.138Z,87.58
2017-09-25T05:01:20.337Z,87.91
2017-09-25T05:03:46.985Z,88.30
2017-09-25T05:06:14.312Z,88.21
2017-09-25T05:08:41.032Z,88.06
2017-09-25T05:11:07.716Z,88.17
2017-09-25T05:13:34.330Z,88.06
2017-09-25T05:18:56.653Z,86.74
2017-09-25T05:21:24.190Z,86.69
2017-09-25T05:36:23.297Z,87.36
2017-09-25T05:46:35.229Z,86.42
2017-09-25T05:51:56.571Z,85.04
2017-09-25T05:54:26.212Z,84.29
2017-09-25T05:56:53.067Z,83.90
2017-09-25T05:59:19.913Z,83.35
2017-09-25T06:01:46.702Z,83.24
2017-09-25T06:04:14.153Z,83.58
2017-09-25T06:06:43.692Z,84.06
2017-09-25T06:09:10.562Z,83.77
2017-09-25T06:11:39.292Z,82.55
2017-09-25T06:14:05.874Z,82.00
2017-09-25T06:16:32.720Z,81.79
2017-09-25T06:18:59.580Z,81.21
2017-09-25T06:21:26.276Z,81.34
2017-09-25T06:23:52.879Z,81.76
2017-09-25T06:26:20.752Z,81.81
2017-09-25T06:28:47.448Z,80.82
2017-09-25T06:31:14.020Z,80.61
2017-09-25T06:33:41.664Z,80.84
2017-09-25T06:36:09.149Z,81.10
2017-09-25T06:38:36.851Z,81.59
2017-09-25T06:41:03.488Z,82.15
2017-09-25T06:43:30.987Z,81.69
2017-09-25T06:45:58.761Z,82.46
2017-09-25T07:01:48.243Z,85.62
2017-09-25T07:04:14.924Z,85.61
2017-09-25T07:06:42.949Z,86.00
2017-09-25T07:09:09.486Z,85.22
2017-09-25T07:11:38.083Z,84.90
2017-09-25T07:14:04.696Z,85.63
2017-09-25T07:55:33.030Z,83.49
2017-09-25T07:57:59.499Z,81.73
2017-09-25T08:00:27.080Z,81.17
2017-09-25T08:02:53.505Z,81.87
2017-09-25T08:05:20.658Z,81.75
2017-09-25T08:07:47.260Z,81.56
2017-09-25T08:10:13.800Z,81.32
2017-09-25T08:12:40.254Z,81.34
2017-09-25T08:18:16.853Z,80.14
2017-09-25T08:20:43.471Z,79.49
2017-09-25T08:23:10.153Z,78.90
2017-09-25T08:25:37.487Z,78.11
2017-09-25T08:28:04.051Z,78.07
2017-09-25T08:43:53.000Z,79.44
2017-09-25T08:46:20.647Z,79.11
2017-09-25T08:48:47.408Z,77.54
2017-09-25T08:51:14.640Z,77.00
2017-09-25T08:53:41.990Z,77.32
2017-09-25T08:56:08.396Z,75.62
2017-09-25T08:58:34.948Z,76.25
2017-09-25T09:01:01.526Z,76.35
2017-09-25T09:03:29.912Z,75.93
2017-09-25T09:05:57.446Z,76.45
2017-09-25T09:08:43.524Z,76.71
2017-09-25T09:11:10.053Z,74.60
2017-09-25T09:13:36.579Z,77.31
2017-09-25T09:29:24.994Z,76.46
2017-09-25T09:31:51.543Z,75.59
2017-09-25T09:34:18.081Z,75.37
2017-09-25T09:36:56.336Z,74.56
2017-09-25T09:39:22.800Z,73.47
2017-09-25T09:41:52.383Z,73.10
2017-09-25T09:44:18.991Z,72.65
2017-09-25T09:46:46.499Z,73.44
2017-09-25T09:49:13.512Z,74.44
2017-09-25T09:51:41.041Z,74.96
2017-09-25T09:54:07.619Z,73.08
2017-09-25T09:56:34.044Z,72.82
2017-09-25T09:59:01.670Z,71.41
2017-09-25T10:01:34.168Z,70.14
2017-09-25T10:44:13.276Z,71.96
2017-09-25T10:46:40.125Z,70.78
2017-09-25T10:49:06.696Z,70.75
2017-09-25T10:54:43.413Z,68.83
2017-09-25T10:59:50.014Z,68.10
2017-09-25T11:02:16.812Z,67.18
2017-09-25T11:04:43.613Z,68.00
2017-09-25T11:07:11.096Z,68.74
2017-09-25T11:09:37.559Z,69.38
2017-09-25T11:15:00.291Z,69.19
2017-09-25T11:17:58.779Z,67.91
2017-09-25T11:56:46.900Z,68.99
2017-09-25T11:59:13.407Z,68.41
2017-09-25T12:01:39.981Z,67.40
2017-09-25T12:04:06.492Z,66.42
2017-09-25T12:06:33.068Z,66.58
2017-09-25T12:08:59.597Z,66.79
2017-09-25T12:11:27.949Z,66.64
2017-09-25T12:13:54.559Z,66.62
2017-09-25T12:16:21.015Z,66.84
2017-09-25T12:18:47.576Z,67.07
2017-09-25T12:21:30.340Z,66.83
2017-09-25T12:23:57.033Z,65.50
2017-09-25T12:26:25.369Z,65.54
2017-09-25T12:28:52.389Z,65.78
2017-09-25T12:31:21.815Z,65.74
2017-09-25T12:33:58.329Z,65.99
2017-09-25T12:36:25.584Z,66.69
2017-09-25T12:38:53.100Z,66.76
2017-09-25T12:41:22.439Z,65.73
2017-09-25T12:43:49.132Z,66.34
2017-09-25T12:46:16.760Z,65.77
2017-09-25T12:48:44.413Z,64.95
2017-09-25T13:30:13.440Z,67.65
2017-09-25T13:32:39.975Z,67.67
2017-09-25T13:35:06.397Z,66.65
2017-09-25T13:40:34.177Z,66.31
2017-09-25T13:43:02.388Z,66.14
2017-09-25T13:45:30.611Z,66.58
2017-09-25T13:48:00.427Z,66.89
2017-09-25T13:50:27.023Z,66.69
2017-09-25T13:52:53.685Z,65.16
2017-09-25T13:55:20.300Z,65.77
2017-09-25T13:57:47.104Z,64.83
2017-09-25T14:02:46.459Z,63.38
2017-09-25T14:05:24.392Z,62.30
2017-09-25T14:07:51.854Z,62.50
2017-09-25T14:10:18.561Z,61.34
2017-09-25T14:12:45.644Z,62.12
2017-09-25T14:15:12.240Z,61.70
2017-09-25T14:17:42.222Z,61.90
2017-09-25T14:20:09.624Z,62.33
2017-09-25T14:22:36.100Z,61.79
2017-09-25T14:25:03.572Z,62.41
2017-09-25T14:27:30.093Z,62.50
2017-09-25T14:29:58.500Z,61.68
2017-09-25T14:32:31.571Z,58.21
2017-09-25T14:34:59.709Z,57.50
2017-09-25T14:37:29.485Z,58.30
2017-09-25T14:39:56.684Z,59.36
2017-09-25T14:42:24.092Z,59.41
2017-09-25T14:44:50.639Z,59.53
2017-09-25T14:47:18.396Z,59.17
2017-09-25T14:49:44.876Z,59.48
2017-09-25T14:52:13.038Z,58.35
2017-09-25T14:57:50.495Z,58.51
2017-09-25T15:06:05.780Z,56.85
2017-09-25T15:11:06.614Z,59.28
2017-09-25T15:13:33.411Z,58.77
2017-09-25T15:16:00.558Z,57.86
2017-09-25T15:21:21.079Z,59.11
2017-09-25T15:23:47.852Z,60.11
2017-09-25T15:29:08.239Z,60.64
2017-09-25T15:31:37.799Z,61.71
2017-09-25T15:34:05.320Z,62.24
2017-09-25T15:36:31.843Z,61.70
2017-09-25T15:38:58.969Z,60.53
2017-09-25T15:41:25.565Z,60.41
2017-09-25T15:43:54.911Z,61.38
2017-09-25T16:11:03.309Z,63.27
2017-09-25T16:13:40.235Z,63.84
2017-09-25T16:16:06.808Z,63.97
2017-09-25T16:18:33.443Z,64.00
2017-09-25T16:21:00.187Z,64.34
2017-09-25T16:23:26.743Z,63.51
2017-09-25T16:25:53.259Z,62.43
2017-09-25T16:28:19.835Z,63.07
2017-09-25T16:30:46.323Z,63.05
2017-09-25T16:44:40.704Z,62.60
2017-09-25T16:47:11.092Z,61.95
2017-09-25T16:49:38.249Z,65.53
2017-09-25T16:52:05.016Z,69.33
2017-09-25T16:54:34.972Z,70.08
2017-09-25T16:57:02.545Z,70.06
2017-09-25T16:59:30.232Z,69.32
2017-09-25T17:01:57.141Z,67.90
2017-09-25T17:04:24.720Z,67.77
2017-09-25T17:06:53.455Z,67.77
2017-09-25T17:12:15.240Z,70.40
2017-09-25T17:14:41.891Z,71.36
2017-09-25T17:17:11.692Z,70.56
2017-09-25T17:55:26.953Z,81.76
2017-09-25T17:57:53.815Z,81.50
2017-09-25T18:00:20.663Z,81.34
2017-09-25T18:02:49.229Z,80.77
2017-09-25T18:05:27.048Z,80.40
2017-09-25T18:07:53.935Z,80.01
2017-09-25T18:10:22.675Z,79.00
2017-09-25T18:12:51.612Z,78.89
2017-09-25T18:15:19.131Z,78.45
2017-09-25T18:17:45.719Z,78.35
2017-09-25T18:20:12.200Z,78.36
2017-09-25T18:22:39.487Z,78.45
2017-09-25T18:25:07.599Z,79.20
2017-09-25T18:27:44.367Z,78.50
2017-09-25T18:30:11.240Z,78.17
2017-09-25T18:32:37.727Z,78.99
2017-09-25T18:35:06.516Z,79.64
2017-09-25T18:37:33.799Z,80.03
2017-09-25T18:40:01.277Z,79.74
2017-09-25T18:42:27.971Z,78.86
2017-09-25T18:44:54.513Z,78.58
2017-09-25T18:47:21.015Z,78.33
2017-09-25T18:49:47.638Z,77.96
2017-09-25T18:55:10.492Z,78.56
2017-09-25T18:57:37.285Z,78.03
2017-09-25T19:00:03.852Z,78.18
2017-09-25T19:02:32.465Z,78.43
2017-09-25T19:05:00.026Z,78.81
2017-09-25T19:07:26.903Z,79.68
2017-09-25T19:09:54.540Z,80.35
2017-09-25T19:12:22.075Z,80.41
2017-09-25T19:26:21.149Z,79.98
2017-09-25T19:28:47.905Z,79.68
2017-09-25T19:31:15.548Z,80.26
2017-09-25T19:33:42.147Z,80.60
2017-09-25T19:36:08.646Z,80.44
2017-09-25T20:16:02.984Z,85.25
2017-09-25T20:18:30.720Z,85.09
2017-09-25T20:20:58.391Z,85.15
2017-09-25T20:23:25.671Z,85.82
2017-09-25T20:25:52.215Z,85.05
2017-09-25T20:28:18.781Z,84.76
2017-09-25T20:30:45.434Z,85.25
2017-09-25T20:33:13.132Z,85.67
2017-09-25T20:35:40.967Z,85.55
2017-09-25T20:38:17.807Z,84.43
2017-09-25T20:40:45.424Z,83.75
2017-09-25T20:43:14.101Z,84.72
2017-09-25T20:45:41.388Z,85.31
2017-09-25T20:48:08.280Z,85.49
2017-09-25T20:50:37.964Z,85.30
2017-09-25T20:53:07.804Z,84.83
2017-09-25T20:55:34.356Z,81.46
2017-09-25T20:58:01.823Z,80.09
2017-09-25T21:00:29.403Z,78.65
2017-09-25T21:46:23.063Z,87.69
2017-09-25T21:48:50.000Z,87.84
2017-09-25T21:51:16.812Z,86.86
2017-09-25T21:53:44.203Z,86.09
2017-09-25T21:56:10.688Z,85.20
2017-09-25T21:58:37.250Z,85.11
2017-09-25T22:01:03.731Z,84.78
2017-09-25T22:03:32.364Z,84.43
2017-09-25T22:05:59.102Z,84.34
2017-09-25T22:08:26.492Z,84.69
2017-09-25T22:10:52.994Z,84.40
2017-09-25T22:13:21.548Z,84.73
2017-09-25T22:18:43.508Z,85.63
2017-09-25T22:21:10.240Z,85.66
2017-09-25T22:23:37.023Z,85.61
2017-09-25T22:26:03.595Z,85.62
2017-09-25T22:28:30.035Z,85.39
2017-09-25T22:30:57.599Z,85.37
2017-09-25T22:33:24.432Z,85.82
2017-09-25T22:35:50.895Z,85.83
2017-09-25T22:38:17.512Z,85.12
2017-09-25T22:40:44.958Z,85.58
2017-09-25T22:46:23.562Z,84.30
2017-09-25T22:48:50.315Z,83.17
2017-09-25T22:51:16.899Z,83.19
2017-09-25T22:53:44.941Z,82.77
2017-09-25T22:56:11.401Z,83.19
2017-09-25T22:58:38.067Z,84.03
2017-09-25T23:01:04.924Z,84.47
2017-09-25T23:15:51.408Z,86.63
2017-09-25T23:18:18.098Z,87.31
2017-09-25T23:20:44.747Z,87.57
2017-09-25T23:23:11.452Z,87.96
2017-09-25T23:25:38.124Z,87.54
2017-09-25T23:28:05.657Z,87.08
2017-09-25T23:30:36.161Z,86.64
2017-09-25T23:33:06.192Z,86.48
2017-09-25T23:35:32.894Z,86.56
2017-09-25T23:37:59.675Z,86.87
2017-09-25T23:40:26.862Z,87.02
2017-09-25T23:42:53.483Z,87.04
2017-09-25T23:45:21.218Z,86.88
2017-09-25T23:47:47.753Z,86.58
2017-09-25T23:50:14.243Z,86.73
2017-09-25T23:52:43.015Z,87.01
2017-09-25T23:55:10.538Z,86.61
2017-09-25T23:57:37.205Z,86.53
